createdAt,value
2019-01-17T00:02:32.894Z,11.35
2019-01-17T00:05:18.100Z,12.10
2019-01-17T00:08:04.460Z,11.12
2019-01-17T00:10:54.543Z,11.70
2019-01-17T00:13:41.644Z,12.20
2019-01-17T00:16:23.150Z,12.40
2019-01-17T00:19:10.580Z,13.03
2019-01-17T00:22:00.891Z,12.50
2019-01-17T00:24:51.105Z,13.00
2019-01-17T00:27:32.579Z,12.80
2019-01-17T00:30:19.646Z,13.70
2019-01-17T00:33:06.693Z,13.32
2019-01-17T00:35:54.311Z,14.00
2019-01-17T00:38:44.695Z,13.90
2019-01-17T00:41:31.112Z,14.58
2019-01-17T00:44:14.424Z,15.00
2019-01-17T00:47:19.724Z,14.95
2019-01-17T00:50:15.755Z,13.62
2019-01-17T00:52:55.040Z,15.20
2019-01-17T00:55:32.541Z,15.32
2019-01-17T00:58:22.588Z,16.20
2019-01-17T01:01:22.385Z,15.80
2019-01-17T01:04:03.743Z,15.70
2019-01-17T01:06:45.551Z,16.90
2019-01-17T01:09:38.518Z,16.95
2019-01-17T01:12:34.809Z,17.37
2019-01-17T01:15:21.009Z,16.57
2019-01-17T01:18:08.596Z,17.67
2019-01-17T01:20:55.800Z,17.27
2019-01-17T01:23:42.936Z,16.75
2019-01-17T01:26:30.611Z,16.45
2019-01-17T01:29:21.214Z,18.17
2019-01-17T01:32:04.675Z,17.23
2019-01-17T01:34:56.100Z,16.55
2019-01-17T01:37:43.081Z,17.07
2019-01-17T01:40:42.334Z,17.32
2019-01-17T01:43:28.585Z,17.20
2019-01-17T01:46:10.426Z,17.32
2019-01-17T01:48:56.635Z,16.75
2019-01-17T01:51:36.856Z,17.48
2019-01-17T01:54:05.047Z,17.50
2019-01-17T01:56:33.449Z,18.30
2019-01-17T01:59:01.525Z,17.82
2019-01-17T02:01:30.076Z,18.42
2019-01-17T02:03:58.468Z,17.10
2019-01-17T02:06:26.564Z,18.10
2019-01-17T02:08:54.651Z,18.45
2019-01-17T02:11:23.044Z,17.30
2019-01-17T02:13:51.351Z,18.40
2019-01-17T02:16:20.420Z,17.90
2019-01-17T02:18:48.836Z,17.87
2019-01-17T02:21:17.439Z,19.00
2019-01-17T02:23:47.084Z,18.20
2019-01-17T02:26:15.528Z,18.00
2019-01-17T02:28:44.051Z,18.77
2019-01-17T02:31:12.943Z,18.67
2019-01-17T02:33:41.573Z,17.62
2019-01-17T02:36:10.040Z,16.52
2019-01-17T02:38:38.605Z,17.07
2019-01-17T02:41:07.024Z,16.40
2019-01-17T02:43:35.560Z,18.50
2019-01-17T02:46:04.346Z,16.23
2019-01-17T02:48:32.584Z,16.20
2019-01-17T02:51:01.633Z,15.80
2019-01-17T02:53:29.947Z,15.08
2019-01-17T02:55:58.567Z,15.25
2019-01-17T02:58:27.123Z,13.72
2019-01-17T03:00:55.388Z,13.00
2019-01-17T03:03:23.956Z,13.20
2019-01-17T03:05:52.059Z,13.10
2019-01-17T03:08:20.964Z,11.90
2019-01-17T03:10:49.210Z,12.60
2019-01-17T03:13:17.274Z,13.18
2019-01-17T03:15:45.409Z,13.15
2019-01-17T03:18:14.181Z,12.43
2019-01-17T03:20:42.259Z,12.00
2019-01-17T03:23:10.385Z,11.60
2019-01-17T03:25:39.380Z,11.35
2019-01-17T03:28:08.004Z,11.30
2019-01-17T03:30:36.319Z,10.63
2019-01-17T03:33:04.502Z,10.13
2019-01-17T03:35:32.745Z,10.78
2019-01-17T03:38:01.128Z,10.30
2019-01-17T03:40:29.335Z,10.23
2019-01-17T03:42:57.419Z,9.90
2019-01-17T03:45:25.511Z,9.85
2019-01-17T03:47:53.665Z,9.78
2019-01-17T03:50:22.638Z,9.48
2019-01-17T03:52:51.005Z,9.30
2019-01-17T03:55:21.778Z,9.45
2019-01-17T03:57:49.867Z,9.40
2019-01-17T04:00:19.616Z,9.70
2019-01-17T04:02:48.215Z,9.00
2019-01-17T04:05:16.511Z,9.05
2019-01-17T04:07:44.964Z,9.10
2019-01-17T04:10:14.084Z,9.20
2019-01-17T04:12:43.507Z,8.80
2019-01-17T04:15:12.747Z,8.38
2019-01-17T04:17:41.323Z,8.18
2019-01-17T04:20:10.933Z,8.30
2019-01-17T04:22:39.064Z,7.67
2019-01-17T04:25:08.627Z,9.53
2019-01-17T04:27:36.746Z,7.65
2019-01-17T04:30:06.039Z,7.40
2019-01-17T04:32:34.086Z,7.70
2019-01-17T04:35:02.451Z,8.08
2019-01-17T04:37:30.607Z,7.60
2019-01-17T04:39:58.748Z,7.40
2019-01-17T04:42:26.855Z,7.87
2019-01-17T04:44:54.923Z,7.20
2019-01-17T04:47:22.961Z,6.53
2019-01-17T04:49:51.124Z,6.75
2019-01-17T04:52:21.050Z,5.20
2019-01-17T04:54:49.148Z,4.90
2019-01-17T04:57:17.216Z,4.80
2019-01-17T04:59:45.476Z,4.37
2019-01-17T05:02:14.028Z,4.15
2019-01-17T05:04:42.232Z,4.03
2019-01-17T05:07:10.497Z,3.90
2019-01-17T05:09:39.224Z,3.87
2019-01-17T05:12:09.752Z,3.52
2019-01-17T05:14:37.853Z,3.90
2019-01-17T05:17:06.461Z,4.08
2019-01-17T05:19:35.131Z,3.90
2019-01-17T05:22:03.259Z,3.63
2019-01-17T05:24:31.356Z,4.10
2019-01-17T05:26:59.992Z,3.70
2019-01-17T05:29:28.070Z,4.00
2019-01-17T05:31:57.023Z,3.83
2019-01-17T05:34:25.171Z,3.90
2019-01-17T05:36:53.534Z,4.37
2019-01-17T05:39:21.809Z,4.37
2019-01-17T05:41:49.937Z,3.83
2019-01-17T05:44:18.521Z,4.30
2019-01-17T05:46:48.307Z,3.83
2019-01-17T05:49:16.712Z,3.90
2019-01-17T05:51:46.699Z,3.70
2019-01-17T05:54:15.156Z,4.45
2019-01-17T05:56:43.767Z,4.00
2019-01-17T05:59:11.832Z,4.20
2019-01-17T06:01:41.460Z,4.30
2019-01-17T06:04:10.190Z,3.90
2019-01-17T06:06:38.352Z,4.30
2019-01-17T06:09:08.396Z,4.15
2019-01-17T06:11:37.272Z,4.20
2019-01-17T06:14:05.887Z,4.00
2019-01-17T06:16:34.030Z,4.22
2019-01-17T06:19:02.599Z,3.70
2019-01-17T06:21:30.748Z,4.45
2019-01-17T06:23:58.930Z,3.70
2019-01-17T06:26:27.717Z,4.40
2019-01-17T06:28:56.097Z,4.67
2019-01-17T06:31:24.841Z,4.25
2019-01-17T06:33:53.267Z,4.17
2019-01-17T06:36:21.880Z,3.60
2019-01-17T06:38:50.004Z,3.80
2019-01-17T06:41:18.134Z,3.60
2019-01-17T06:43:46.232Z,3.60
2019-01-17T06:46:14.386Z,4.40
2019-01-17T06:48:43.195Z,3.85
2019-01-17T06:51:11.833Z,3.70
2019-01-17T06:53:40.274Z,3.58
2019-01-17T06:56:08.399Z,3.60
2019-01-17T06:58:36.523Z,3.70
2019-01-17T07:01:04.851Z,3.42
2019-01-17T07:03:32.977Z,3.37
2019-01-17T07:06:01.849Z,3.77
2019-01-17T07:08:30.163Z,3.60
2019-01-17T07:10:58.536Z,4.15
2019-01-17T07:13:26.648Z,3.80
2019-01-17T07:15:54.689Z,3.67
2019-01-17T07:18:24.321Z,3.73
2019-01-17T07:20:52.472Z,4.00
2019-01-17T07:23:21.035Z,4.00
2019-01-17T07:25:49.504Z,3.80
2019-01-17T07:28:18.117Z,4.17
2019-01-17T07:30:46.233Z,4.25
2019-01-17T07:33:14.579Z,4.10
2019-01-17T07:35:42.712Z,4.20
2019-01-17T07:38:11.141Z,3.80
2019-01-17T07:40:40.225Z,4.30
2019-01-17T07:43:08.740Z,3.85
2019-01-17T07:45:37.162Z,4.33
2019-01-17T07:48:06.077Z,4.50
2019-01-17T07:50:34.500Z,3.80
2019-01-17T07:53:02.824Z,3.90
2019-01-17T07:55:31.258Z,3.95
2019-01-17T07:57:59.697Z,4.00
2019-01-17T08:00:28.116Z,4.25
2019-01-17T08:02:56.618Z,4.20
2019-01-17T08:05:24.675Z,3.42
2019-01-17T08:07:53.212Z,3.60
2019-01-17T08:10:21.378Z,3.58
2019-01-17T08:12:50.381Z,3.60
2019-01-17T08:15:19.337Z,3.80
2019-01-17T08:17:47.722Z,3.23
2019-01-17T08:20:17.424Z,3.50
2019-01-17T08:22:45.906Z,3.50
2019-01-17T08:25:14.612Z,3.58
2019-01-17T08:27:42.878Z,3.70
2019-01-17T08:30:12.643Z,3.40
2019-01-17T08:32:40.939Z,3.70
2019-01-17T08:35:10.428Z,4.05
2019-01-17T08:37:38.943Z,3.40
2019-01-17T08:40:10.028Z,3.40
2019-01-17T08:42:38.563Z,4.00
2019-01-17T08:45:07.715Z,3.58
2019-01-17T08:47:35.834Z,3.10
2019-01-17T08:50:05.022Z,3.47
2019-01-17T08:52:33.154Z,3.57
2019-01-17T08:55:02.248Z,3.42
2019-01-17T08:57:30.846Z,4.90
2019-01-17T08:59:59.008Z,3.00
2019-01-17T09:02:27.139Z,3.67
2019-01-17T09:04:55.717Z,3.80
2019-01-17T09:07:23.880Z,3.67
2019-01-17T09:09:52.121Z,3.80
2019-01-17T09:12:20.307Z,3.95
2019-01-17T09:14:48.330Z,3.40
2019-01-17T09:17:16.475Z,3.70
2019-01-17T09:19:44.518Z,3.62
2019-01-17T09:22:12.755Z,3.77
2019-01-17T09:24:42.172Z,3.55
2019-01-17T09:27:11.125Z,3.65
2019-01-17T09:29:39.455Z,3.72
2019-01-17T09:32:07.835Z,4.00
2019-01-17T09:34:36.774Z,3.70
2019-01-17T09:37:04.881Z,3.60
2019-01-17T09:39:33.037Z,3.55
2019-01-17T09:42:01.517Z,3.70
2019-01-17T09:44:29.831Z,3.60
2019-01-17T09:47:01.242Z,3.80
2019-01-17T09:49:32.379Z,3.90
2019-01-17T09:52:00.498Z,4.10
2019-01-17T09:54:29.515Z,3.50
2019-01-17T09:56:58.626Z,3.60
2019-01-17T09:59:27.353Z,4.55
2019-01-17T10:02:46.691Z,4.00
2019-01-17T10:05:15.139Z,4.00
2019-01-17T10:07:43.499Z,3.70
2019-01-17T10:10:13.500Z,4.40
2019-01-17T10:12:42.524Z,4.33
2019-01-17T10:15:12.540Z,4.30
2019-01-17T10:17:59.741Z,3.90
2019-01-17T10:20:48.267Z,3.83
2019-01-17T10:23:47.473Z,4.28
2019-01-17T10:26:26.487Z,4.50
2019-01-17T10:29:02.752Z,4.00
2019-01-17T10:31:49.052Z,3.95
2019-01-17T10:34:42.615Z,4.28
2019-01-17T10:37:16.417Z,4.25
2019-01-17T10:40:21.806Z,4.47
2019-01-17T10:43:09.097Z,4.60
2019-01-17T10:46:03.144Z,4.45
2019-01-17T10:48:44.683Z,4.08
2019-01-17T10:51:30.661Z,4.78
2019-01-17T10:54:02.784Z,4.20
2019-01-17T10:56:49.595Z,4.58
2019-01-17T10:59:35.766Z,4.33
2019-01-17T11:02:10.764Z,4.42
2019-01-17T11:04:56.587Z,4.58
2019-01-17T11:07:42.394Z,4.20
2019-01-17T11:10:45.392Z,3.92
2019-01-17T11:13:38.629Z,4.10
2019-01-17T11:16:24.399Z,4.17
2019-01-17T11:19:11.521Z,4.60
2019-01-17T11:21:49.111Z,4.30
2019-01-17T11:24:28.099Z,4.15
2019-01-17T11:27:02.069Z,4.12
2019-01-17T11:29:52.243Z,4.67
2019-01-17T11:32:45.491Z,3.67
2019-01-17T11:35:44.718Z,4.00
2019-01-17T11:38:41.039Z,3.80
2019-01-17T11:41:34.512Z,3.80
2019-01-17T11:44:34.263Z,3.95
2019-01-17T11:47:27.439Z,3.80
2019-01-17T11:50:20.619Z,3.20
2019-01-17T11:53:06.338Z,3.50
2019-01-17T11:55:56.300Z,3.30
2019-01-17T11:58:35.210Z,3.45
2019-01-17T12:01:22.712Z,3.23
2019-01-17T12:04:02.109Z,3.60
2019-01-17T12:06:31.011Z,2.90
2019-01-17T12:08:59.143Z,3.45
2019-01-17T12:11:27.599Z,3.52
2019-01-17T12:13:55.699Z,3.52
2019-01-17T12:16:23.759Z,3.60
2019-01-17T12:18:52.225Z,3.52
2019-01-17T12:21:20.556Z,3.70
2019-01-17T12:23:49.401Z,3.37
2019-01-17T12:26:18.827Z,3.50
2019-01-17T12:28:47.382Z,3.58
2019-01-17T12:31:15.844Z,3.52
2019-01-17T12:33:44.384Z,3.10
2019-01-17T12:36:12.456Z,3.00
2019-01-17T12:38:40.623Z,3.30
2019-01-17T12:41:09.081Z,3.30
2019-01-17T12:43:37.508Z,3.30
2019-01-17T12:46:05.899Z,3.52
2019-01-17T12:48:34.419Z,3.20
2019-01-17T12:51:02.671Z,2.98
2019-01-17T12:53:30.723Z,3.22
2019-01-17T12:55:59.177Z,3.60
2019-01-17T12:58:27.347Z,3.60
2019-01-17T13:00:56.041Z,3.17
2019-01-17T13:03:24.689Z,3.58
2019-01-17T13:05:52.908Z,3.20
2019-01-17T13:08:21.311Z,3.40
2019-01-17T13:10:49.584Z,3.30
2019-01-17T13:13:18.628Z,3.20
2019-01-17T13:15:47.098Z,3.05
2019-01-17T13:18:15.252Z,2.90
2019-01-17T13:20:43.699Z,3.10
2019-01-17T13:23:11.883Z,2.90
2019-01-17T13:25:40.016Z,2.60
2019-01-17T13:28:08.488Z,2.70
2019-01-17T13:30:36.997Z,3.00
2019-01-17T13:33:05.795Z,2.40
2019-01-17T13:35:34.235Z,2.50
2019-01-17T13:38:02.374Z,2.40
2019-01-17T13:40:30.672Z,2.75
2019-01-17T13:42:59.477Z,2.60
2019-01-17T13:45:27.896Z,3.37
2019-01-17T13:47:56.371Z,2.85
2019-01-17T13:50:25.332Z,2.80
2019-01-17T13:52:54.786Z,3.07
2019-01-17T13:55:22.887Z,3.17
2019-01-17T13:57:51.431Z,3.50
2019-01-17T14:00:24.206Z,3.40
2019-01-17T14:02:52.404Z,3.60
2019-01-17T14:05:21.324Z,3.85
2019-01-17T14:07:50.124Z,3.70
2019-01-17T14:10:18.209Z,3.98
2019-01-17T14:12:46.432Z,4.30
2019-01-17T14:15:16.597Z,4.30
2019-01-17T14:17:45.125Z,4.30
2019-01-17T14:20:14.068Z,4.40
2019-01-17T14:22:42.192Z,3.92
2019-01-17T14:25:10.263Z,4.50
2019-01-17T14:27:39.007Z,4.90
2019-01-17T14:30:08.998Z,4.50
2019-01-17T14:32:37.524Z,4.75
2019-01-17T14:35:05.825Z,5.12
2019-01-17T14:37:34.000Z,4.37
2019-01-17T14:40:02.019Z,5.10
2019-01-17T14:42:30.148Z,5.00
2019-01-17T14:44:58.565Z,5.40
2019-01-17T14:47:26.860Z,5.05
2019-01-17T14:49:55.171Z,5.40
2019-01-17T14:52:23.311Z,6.00
2019-01-17T14:54:51.743Z,5.80
2019-01-17T14:57:20.739Z,5.60
2019-01-17T14:59:48.965Z,5.47
2019-01-17T15:02:17.966Z,4.70
2019-01-17T15:04:46.120Z,4.90
2019-01-17T15:07:15.489Z,4.70
2019-01-17T15:09:44.120Z,5.20
2019-01-17T15:12:12.828Z,4.62
2019-01-17T15:14:41.431Z,5.05
2019-01-17T15:17:09.703Z,4.97
2019-01-17T15:19:37.764Z,5.00
2019-01-17T15:22:07.348Z,5.63
2019-01-17T15:24:35.867Z,5.60
2019-01-17T15:27:04.313Z,5.50
2019-01-17T15:29:32.457Z,5.70
2019-01-17T15:32:00.759Z,5.37
2019-01-17T15:34:28.874Z,4.72
2019-01-17T15:36:57.012Z,5.60
2019-01-17T15:39:25.241Z,4.80
2019-01-17T15:41:53.780Z,4.55
2019-01-17T15:44:22.099Z,4.28
2019-01-17T15:46:50.258Z,4.58
2019-01-17T15:49:18.676Z,3.70
2019-01-17T15:51:46.725Z,3.80
2019-01-17T15:54:14.767Z,3.40
2019-01-17T15:56:43.328Z,3.05
2019-01-17T15:59:11.848Z,3.20
2019-01-17T16:01:39.944Z,2.83
2019-01-17T16:04:08.093Z,2.87
2019-01-17T16:06:37.353Z,3.45
2019-01-17T16:09:06.030Z,2.90
2019-01-17T16:11:34.599Z,2.90
2019-01-17T16:14:03.103Z,2.90
2019-01-17T16:16:31.345Z,3.00
2019-01-17T16:18:59.665Z,2.90
2019-01-17T16:21:27.712Z,2.80
2019-01-17T16:23:56.533Z,2.70
2019-01-17T16:26:24.676Z,2.77
2019-01-17T16:28:52.913Z,3.25
2019-01-17T16:31:21.456Z,3.00
2019-01-17T16:33:49.832Z,3.90
2019-01-17T16:36:17.895Z,3.87
2019-01-17T16:38:46.793Z,2.80
2019-01-17T16:41:15.328Z,2.70
2019-01-17T16:43:43.696Z,3.00
2019-01-17T16:46:13.714Z,2.40
2019-01-17T16:48:41.788Z,2.60
2019-01-17T16:51:09.967Z,2.60
2019-01-17T16:53:40.161Z,3.25
2019-01-17T16:56:08.765Z,3.70
2019-01-17T16:58:37.325Z,3.25
2019-01-17T17:01:05.680Z,3.30
2019-01-17T17:03:34.079Z,4.80
2019-01-17T17:06:02.617Z,5.58
2019-01-17T17:08:31.807Z,3.80
2019-01-17T17:11:00.379Z,3.92
2019-01-17T17:13:28.867Z,3.40
2019-01-17T17:15:57.042Z,3.33
2019-01-17T17:18:25.494Z,4.05
2019-01-17T17:20:53.717Z,3.83
2019-01-17T17:23:21.955Z,4.00
2019-01-17T17:25:50.481Z,3.83
2019-01-17T17:28:18.905Z,4.83
2019-01-17T17:30:46.963Z,4.35
2019-01-17T17:33:15.379Z,3.70
2019-01-17T17:35:43.577Z,4.47
2019-01-17T17:38:11.999Z,4.40
2019-01-17T17:40:40.477Z,4.75
2019-01-17T17:43:08.521Z,4.70
2019-01-17T17:45:36.969Z,5.67
2019-01-17T17:48:05.819Z,4.60
2019-01-17T17:50:34.612Z,5.00
2019-01-17T17:53:04.013Z,5.50
2019-01-17T17:55:32.558Z,6.20
2019-01-17T17:58:02.281Z,5.90
2019-01-17T18:00:43.988Z,6.50
2019-01-17T18:03:12.713Z,6.60
2019-01-17T18:05:44.186Z,6.50
2019-01-17T18:08:13.812Z,6.70
2019-01-17T18:10:43.286Z,7.00
2019-01-17T18:13:14.184Z,7.00
2019-01-17T18:15:46.492Z,7.20
2019-01-17T18:18:19.654Z,8.55
2019-01-17T18:20:50.251Z,7.20
2019-01-17T18:23:21.761Z,6.50
2019-01-17T18:25:49.896Z,6.62
2019-01-17T18:28:19.076Z,6.10
2019-01-17T18:30:47.750Z,6.33
2019-01-17T18:33:15.879Z,7.10
2019-01-17T18:35:44.220Z,10.68
2019-01-17T18:38:12.464Z,4.67
2019-01-17T18:40:40.709Z,3.50
2019-01-17T18:43:09.301Z,5.17
2019-01-17T18:45:37.769Z,4.43
2019-01-17T18:48:05.982Z,2.90
2019-01-17T18:50:35.956Z,4.00
2019-01-17T18:53:04.624Z,2.70
2019-01-17T18:55:33.124Z,2.20
2019-01-17T18:58:01.335Z,1.90
2019-01-17T19:00:31.545Z,1.50
2019-01-17T19:02:59.881Z,1.10
2019-01-17T19:05:28.812Z,1.15
2019-01-17T19:07:57.451Z,1.17
2019-01-17T19:10:25.581Z,1.10
2019-01-17T19:12:54.538Z,1.00
2019-01-17T19:15:24.762Z,1.50
2019-01-17T19:17:53.159Z,1.87
2019-01-17T19:20:21.447Z,2.20
2019-01-17T19:22:50.959Z,1.67
2019-01-17T19:25:19.573Z,1.10
2019-01-17T19:27:47.765Z,1.20
2019-01-17T19:30:17.113Z,0.90
2019-01-17T19:32:45.885Z,0.82
2019-01-17T19:35:14.540Z,1.40
2019-01-17T19:37:43.669Z,1.30
2019-01-17T19:40:12.887Z,0.80
2019-01-17T19:42:41.019Z,0.93
2019-01-17T19:45:09.385Z,1.30
2019-01-17T19:47:38.352Z,1.07
2019-01-17T19:50:08.476Z,1.02
2019-01-17T19:52:36.693Z,1.30
2019-01-17T19:55:05.315Z,1.30
2019-01-17T19:57:33.790Z,1.92
2019-01-17T20:00:01.877Z,1.20
2019-01-17T20:02:29.899Z,2.27
2019-01-17T20:04:58.436Z,1.70
2019-01-17T20:07:27.301Z,1.37
2019-01-17T20:09:56.255Z,2.40
2019-01-17T20:12:24.416Z,1.20
2019-01-17T20:14:52.885Z,1.37
2019-01-17T20:17:21.313Z,1.40
2019-01-17T20:19:50.344Z,1.60
2019-01-17T20:22:18.717Z,1.75
2019-01-17T20:24:46.890Z,1.62
2019-01-17T20:27:15.420Z,1.67
2019-01-17T20:29:43.555Z,1.42
2019-01-17T20:32:11.721Z,1.30
2019-01-17T20:34:39.797Z,1.30
2019-01-17T20:37:07.915Z,1.13
2019-01-17T20:39:36.720Z,1.30
2019-01-17T20:42:04.991Z,1.07
2019-01-17T20:44:34.778Z,2.30
2019-01-17T20:47:02.954Z,2.60
2019-01-17T20:49:30.970Z,4.00
2019-01-17T20:51:59.168Z,6.85
2019-01-17T20:54:27.615Z,13.85
2019-01-17T20:56:57.179Z,2.98
2019-01-17T20:59:25.708Z,2.45
2019-01-17T21:02:05.083Z,4.13
2019-01-17T21:04:33.260Z,2.20
2019-01-17T21:07:05.655Z,2.22
2019-01-17T21:09:31.249Z,2.87
2019-01-17T21:12:00.160Z,2.33
2019-01-17T21:14:28.231Z,2.37
2019-01-17T21:16:57.041Z,0.93
2019-01-17T21:19:25.485Z,1.07
2019-01-17T21:21:53.696Z,1.20
2019-01-17T21:24:22.513Z,0.90
2019-01-17T21:26:50.827Z,0.93
2019-01-17T21:29:20.614Z,0.80
2019-01-17T21:31:48.696Z,1.00
2019-01-17T21:34:16.744Z,0.80
2019-01-17T21:36:44.856Z,0.80
2019-01-17T21:39:13.035Z,0.85
2019-01-17T21:41:41.466Z,1.10
2019-01-17T21:44:10.739Z,1.05
2019-01-17T21:46:39.110Z,0.90
2019-01-17T21:49:09.221Z,1.00
2019-01-17T21:51:37.544Z,1.00
2019-01-17T21:54:07.947Z,1.00
2019-01-17T21:56:36.087Z,1.10
2019-01-17T21:59:04.809Z,0.90
2019-01-17T22:01:34.688Z,0.98
2019-01-17T22:04:03.219Z,0.90
2019-01-17T22:06:31.711Z,1.07
2019-01-17T22:09:00.056Z,0.78
2019-01-17T22:11:28.216Z,1.00
2019-01-17T22:13:56.281Z,1.00
2019-01-17T22:16:24.762Z,1.00
2019-01-17T22:18:53.140Z,1.20
2019-01-17T22:21:21.521Z,1.20
2019-01-17T22:23:49.682Z,1.20
2019-01-17T22:26:21.114Z,1.20
2019-01-17T22:28:47.583Z,1.20
2019-01-17T22:31:15.679Z,0.80
2019-01-17T22:33:43.924Z,1.30
2019-01-17T22:36:12.528Z,1.17
2019-01-17T22:38:41.057Z,1.20
2019-01-17T22:41:09.964Z,1.10
2019-01-17T22:43:38.163Z,1.30
2019-01-17T22:46:06.437Z,1.00
2019-01-17T22:48:35.085Z,1.10
2019-01-17T22:51:03.707Z,1.10
2019-01-17T22:53:31.789Z,1.30
2019-01-17T22:56:00.222Z,1.30
2019-01-17T22:58:28.633Z,1.20
2019-01-17T23:01:09.631Z,1.20
2019-01-17T23:03:39.487Z,1.50
2019-01-17T23:06:08.079Z,1.30
2019-01-17T23:08:36.451Z,1.00
2019-01-17T23:11:05.948Z,1.07
2019-01-17T23:13:34.029Z,1.30
2019-01-17T23:16:02.409Z,1.20
2019-01-17T23:18:30.455Z,1.40
2019-01-17T23:20:58.564Z,1.20
2019-01-17T23:23:26.604Z,1.20
2019-01-17T23:25:54.682Z,1.45
2019-01-17T23:28:22.798Z,1.30
2019-01-17T23:30:50.984Z,1.50
2019-01-17T23:33:19.411Z,1.40
2019-01-17T23:35:47.942Z,1.80
2019-01-17T23:38:16.236Z,1.40
2019-01-17T23:40:44.286Z,1.50
2019-01-17T23:43:12.364Z,1.50
2019-01-17T23:45:40.830Z,1.20
2019-01-17T23:48:08.953Z,1.10
2019-01-17T23:50:37.659Z,1.20
2019-01-17T23:53:05.714Z,1.40
2019-01-17T23:55:33.861Z,1.10
2019-01-17T23:58:02.088Z,1.10
